sensor_id;sensor_type;location;lat;lon;timestamp;temperature;humidity
17452;DHT22;8843;48.838;9.324;2022-10-16T00:01:15;15.90;96.50
17452;DHT22;8843;48.838;9.324;2022-10-16T00:03:43;15.90;95.90
17452;DHT22;8843;48.838;9.324;2022-10-16T00:06:11;15.90;95.90
17452;DHT22;8843;48.838;9.324;2022-10-16T00:08:38;15.90;96.40
17452;DHT22;8843;48.838;9.324;2022-10-16T00:11:08;15.90;96.10
17452;DHT22;8843;48.838;9.324;2022-10-16T00:13:37;15.90;95.10
17452;DHT22;8843;48.838;9.324;2022-10-16T00:16:05;15.90;96.00
17452;DHT22;8843;48.838;9.324;2022-10-16T00:18:32;15.90;95.90
17452;DHT22;8843;48.838;9.324;2022-10-16T00:21:02;15.90;95.10
17452;DHT22;8843;48.838;9.324;2022-10-16T00:23:29;15.90;96.00
17452;DHT22;8843;48.838;9.324;2022-10-16T00:25:56;15.90;96.10
17452;DHT22;8843;48.838;9.324;2022-10-16T00:28:25;15.90;95.80
17452;DHT22;8843;48.838;9.324;2022-10-16T00:30:52;15.90;95.80
17452;DHT22;8843;48.838;9.324;2022-10-16T00:33:20;15.90;95.40
17452;DHT22;8843;48.838;9.324;2022-10-16T00:35:48;15.90;95.40
17452;DHT22;8843;48.838;9.324;2022-10-16T00:38:15;15.90;95.80
17452;DHT22;8843;48.838;9.324;2022-10-16T00:40:42;15.90;95.70
17452;DHT22;8843;48.838;9.324;2022-10-16T00:43:13;15.90;95.50
17452;DHT22;8843;48.838;9.324;2022-10-16T00:45:42;15.90;95.70
17452;DHT22;8843;48.838;9.324;2022-10-16T00:48:12;15.90;95.40
17452;DHT22;8843;48.838;9.324;2022-10-16T00:50:40;15.90;95.40
17452;DHT22;8843;48.838;9.324;2022-10-16T00:53:10;15.90;95.30
17452;DHT22;8843;48.838;9.324;2022-10-16T00:55:38;15.90;95.00
17452;DHT22;8843;48.838;9.324;2022-10-16T00:58:05;15.90;95.40
17452;DHT22;8843;48.838;9.324;2022-10-16T01:00:32;15.90;95.20
17452;DHT22;8843;48.838;9.324;2022-10-16T01:03:01;15.90;95.30
17452;DHT22;8843;48.838;9.324;2022-10-16T01:05:34;15.90;95.30
17452;DHT22;8843;48.838;9.324;2022-10-16T01:08:08;15.90;95.00
17452;DHT22;8843;48.838;9.324;2022-10-16T01:10:40;15.90;95.40
17452;DHT22;8843;48.838;9.324;2022-10-16T01:13:10;15.90;95.50
17452;DHT22;8843;48.838;9.324;2022-10-16T01:15:42;15.90;95.40
17452;DHT22;8843;48.838;9.324;2022-10-16T01:18:15;15.90;95.60
17452;DHT22;8843;48.838;9.324;2022-10-16T01:20:46;15.90;95.50
17452;DHT22;8843;48.838;9.324;2022-10-16T01:23:21;15.90;95.40
17452;DHT22;8843;48.838;9.324;2022-10-16T01:26:20;15.90;94.90
17452;DHT22;8843;48.838;9.324;2022-10-16T01:28:55;15.90;94.70
17452;DHT22;8843;48.838;9.324;2022-10-16T01:31:26;15.90;95.50
17452;DHT22;8843;48.838;9.324;2022-10-16T01:34:00;15.90;95.20
17452;DHT22;8843;48.838;9.324;2022-10-16T01:36:33;15.90;94.90
17452;DHT22;8843;48.838;9.324;2022-10-16T01:39:03;15.90;95.30
17452;DHT22;8843;48.838;9.324;2022-10-16T01:41:34;15.90;95.50
17452;DHT22;8843;48.838;9.324;2022-10-16T01:44:05;15.90;95.40
17452;DHT22;8843;48.838;9.324;2022-10-16T01:46:34;15.90;95.60
17452;DHT22;8843;48.838;9.324;2022-10-16T01:49:03;15.90;95.70
17452;DHT22;8843;48.838;9.324;2022-10-16T01:51:30;15.90;95.50
17452;DHT22;8843;48.838;9.324;2022-10-16T01:54:00;15.90;95.30
17452;DHT22;8843;48.838;9.324;2022-10-16T01:56:29;15.90;95.50
17452;DHT22;8843;48.838;9.324;2022-10-16T01:59:00;15.90;95.30
17452;DHT22;8843;48.838;9.324;2022-10-16T02:01:31;15.90;95.60
17452;DHT22;8843;48.838;9.324;2022-10-16T02:04:05;15.80;95.90
17452;DHT22;8843;48.838;9.324;2022-10-16T02:06:34;15.80;95.40
17452;DHT22;8843;48.838;9.324;2022-10-16T02:09:01;15.80;95.90
17452;DHT22;8843;48.838;9.324;2022-10-16T02:11:28;15.80;95.30
17452;DHT22;8843;48.838;9.324;2022-10-16T02:14:00;15.80;95.20
17452;DHT22;8843;48.838;9.324;2022-10-16T02:16:35;15.80;95.30
17452;DHT22;8843;48.838;9.324;2022-10-16T02:19:02;15.80;95.70
17452;DHT22;8843;48.838;9.324;2022-10-16T02:21:34;15.80;95.30
17452;DHT22;8843;48.838;9.324;2022-10-16T02:24:07;15.80;95.50
17452;DHT22;8843;48.838;9.324;2022-10-16T02:26:39;15.90;95.40
17452;DHT22;8843;48.838;9.324;2022-10-16T02:29:12;15.80;95.40
17452;DHT22;8843;48.838;9.324;2022-10-16T02:31:43;15.80;95.30
17452;DHT22;8843;48.838;9.324;2022-10-16T02:34:14;15.80;95.20
17452;DHT22;8843;48.838;9.324;2022-10-16T02:36:42;15.90;95.00
17452;DHT22;8843;48.838;9.324;2022-10-16T02:39:09;15.90;94.90
17452;DHT22;8843;48.838;9.324;2022-10-16T02:41:37;15.80;95.70
17452;DHT22;8843;48.838;9.324;2022-10-16T02:44:04;15.80;95.70
17452;DHT22;8843;48.838;9.324;2022-10-16T02:46:31;15.90;95.50
17452;DHT22;8843;48.838;9.324;2022-10-16T02:48:59;15.80;95.40
17452;DHT22;8843;48.838;9.324;2022-10-16T02:51:26;15.80;95.10
17452;DHT22;8843;48.838;9.324;2022-10-16T02:53:53;15.80;95.30
17452;DHT22;8843;48.838;9.324;2022-10-16T02:56:20;15.80;94.90
17452;DHT22;8843;48.838;9.324;2022-10-16T02:58:47;15.80;95.20
17452;DHT22;8843;48.838;9.324;2022-10-16T03:01:14;15.80;95.40
17452;DHT22;8843;48.838;9.324;2022-10-16T03:03:42;15.80;95.30
17452;DHT22;8843;48.838;9.324;2022-10-16T03:06:11;15.80;95.30
17452;DHT22;8843;48.838;9.324;2022-10-16T03:08:37;15.80;95.30
17452;DHT22;8843;48.838;9.324;2022-10-16T03:11:05;15.80;95.60
17452;DHT22;8843;48.838;9.324;2022-10-16T03:13:31;15.80;95.20
17452;DHT22;8843;48.838;9.324;2022-10-16T03:15:58;15.80;95.50
17452;DHT22;8843;48.838;9.324;2022-10-16T03:18:25;15.80;95.60
17452;DHT22;8843;48.838;9.324;2022-10-16T03:20:52;15.80;95.30
17452;DHT22;8843;48.838;9.324;2022-10-16T03:23:20;15.80;95.30
17452;DHT22;8843;48.838;9.324;2022-10-16T03:25:47;15.80;95.30
17452;DHT22;8843;48.838;9.324;2022-10-16T03:28:14;15.80;95.20
17452;DHT22;8843;48.838;9.324;2022-10-16T03:30:42;15.80;95.40
17452;DHT22;8843;48.838;9.324;2022-10-16T03:33:09;15.80;94.80
17452;DHT22;8843;48.838;9.324;2022-10-16T03:35:36;15.80;95.10
17452;DHT22;8843;48.838;9.324;2022-10-16T03:38:03;15.80;95.20
17452;DHT22;8843;48.838;9.324;2022-10-16T03:40:31;15.80;95.20
17452;DHT22;8843;48.838;9.324;2022-10-16T03:42:58;15.80;94.90
17452;DHT22;8843;48.838;9.324;2022-10-16T03:45:25;15.80;95.40
17452;DHT22;8843;48.838;9.324;2022-10-16T03:47:52;15.80;95.20
17452;DHT22;8843;48.838;9.324;2022-10-16T03:50:19;15.80;95.10
17452;DHT22;8843;48.838;9.324;2022-10-16T03:52:46;15.80;95.10
17452;DHT22;8843;48.838;9.324;2022-10-16T03:55:13;15.80;95.20
17452;DHT22;8843;48.838;9.324;2022-10-16T03:57:41;15.80;95.30
17452;DHT22;8843;48.838;9.324;2022-10-16T04:00:10;15.80;95.20
17452;DHT22;8843;48.838;9.324;2022-10-16T04:02:37;15.80;95.10
17452;DHT22;8843;48.838;9.324;2022-10-16T04:05:04;15.80;95.00
17452;DHT22;8843;48.838;9.324;2022-10-16T04:07:31;15.80;94.70
17452;DHT22;8843;48.838;9.324;2022-10-16T04:09:58;15.80;95.00
17452;DHT22;8843;48.838;9.324;2022-10-16T04:12:25;15.80;94.70
17452;DHT22;8843;48.838;9.324;2022-10-16T04:14:53;15.80;95.40
17452;DHT22;8843;48.838;9.324;2022-10-16T04:17:20;15.80;94.90
17452;DHT22;8843;48.838;9.324;2022-10-16T04:19:47;15.80;94.90
17452;DHT22;8843;48.838;9.324;2022-10-16T04:22:14;15.80;94.60
17452;DHT22;8843;48.838;9.324;2022-10-16T04:24:41;15.80;94.90
17452;DHT22;8843;48.838;9.324;2022-10-16T04:27:07;15.80;94.70
17452;DHT22;8843;48.838;9.324;2022-10-16T04:29:34;15.80;95.00
17452;DHT22;8843;48.838;9.324;2022-10-16T04:32:02;15.80;94.60
17452;DHT22;8843;48.838;9.324;2022-10-16T04:34:29;15.80;94.30
17452;DHT22;8843;48.838;9.324;2022-10-16T04:36:56;15.80;94.70
17452;DHT22;8843;48.838;9.324;2022-10-16T04:39:23;15.80;94.60
17452;DHT22;8843;48.838;9.324;2022-10-16T04:41:50;15.80;94.50
17452;DHT22;8843;48.838;9.324;2022-10-16T04:44:17;15.80;94.10
17452;DHT22;8843;48.838;9.324;2022-10-16T04:46:44;15.80;94.20
17452;DHT22;8843;48.838;9.324;2022-10-16T04:49:12;15.80;94.60
17452;DHT22;8843;48.838;9.324;2022-10-16T04:51:39;15.80;94.50
17452;DHT22;8843;48.838;9.324;2022-10-16T04:54:06;15.80;94.10
17452;DHT22;8843;48.838;9.324;2022-10-16T04:56:33;15.80;95.20
17452;DHT22;8843;48.838;9.324;2022-10-16T04:59:05;15.70;94.80
17452;DHT22;8843;48.838;9.324;2022-10-16T05:01:32;15.70;94.60
17452;DHT22;8843;48.838;9.324;2022-10-16T05:03:59;15.70;94.60
17452;DHT22;8843;48.838;9.324;2022-10-16T05:06:27;15.70;94.50
17452;DHT22;8843;48.838;9.324;2022-10-16T05:08:54;15.70;94.70
17452;DHT22;8843;48.838;9.324;2022-10-16T05:11:21;15.80;94.80
17452;DHT22;8843;48.838;9.324;2022-10-16T05:13:48;15.70;94.40
17452;DHT22;8843;48.838;9.324;2022-10-16T05:16:14;15.80;94.90
17452;DHT22;8843;48.838;9.324;2022-10-16T05:18:41;15.70;94.50
17452;DHT22;8843;48.838;9.324;2022-10-16T05:21:08;15.70;95.00
17452;DHT22;8843;48.838;9.324;2022-10-16T05:23:36;15.70;94.80
17452;DHT22;8843;48.838;9.324;2022-10-16T05:26:04;15.70;94.90
17452;DHT22;8843;48.838;9.324;2022-10-16T05:28:31;15.70;95.10
17452;DHT22;8843;48.838;9.324;2022-10-16T05:30:58;15.70;94.90
17452;DHT22;8843;48.838;9.324;2022-10-16T05:33:25;15.70;95.20
17452;DHT22;8843;48.838;9.324;2022-10-16T05:35:52;15.70;95.10
17452;DHT22;8843;48.838;9.324;2022-10-16T05:38:19;15.70;95.10
17452;DHT22;8843;48.838;9.324;2022-10-16T05:40:52;15.70;94.70
17452;DHT22;8843;48.838;9.324;2022-10-16T05:43:19;15.70;95.00
17452;DHT22;8843;48.838;9.324;2022-10-16T05:45:54;15.70;95.10
17452;DHT22;8843;48.838;9.324;2022-10-16T05:48:21;15.70;95.20
17452;DHT22;8843;48.838;9.324;2022-10-16T05:50:48;15.70;94.40
17452;DHT22;8843;48.838;9.324;2022-10-16T05:53:15;15.70;95.10
17452;DHT22;8843;48.838;9.324;2022-10-16T05:55:42;15.70;94.90
17452;DHT22;8843;48.838;9.324;2022-10-16T05:58:10;15.70;95.00
17452;DHT22;8843;48.838;9.324;2022-10-16T06:00:37;15.70;95.10
17452;DHT22;8843;48.838;9.324;2022-10-16T06:03:04;15.70;94.70
17452;DHT22;8843;48.838;9.324;2022-10-16T06:05:32;15.70;94.50
17452;DHT22;8843;48.838;9.324;2022-10-16T06:07:59;15.70;94.20
17452;DHT22;8843;48.838;9.324;2022-10-16T06:10:26;15.70;94.40
17452;DHT22;8843;48.838;9.324;2022-10-16T06:12:54;15.70;94.20
17452;DHT22;8843;48.838;9.324;2022-10-16T06:15:22;15.70;94.30
17452;DHT22;8843;48.838;9.324;2022-10-16T06:17:49;15.70;94.50
17452;DHT22;8843;48.838;9.324;2022-10-16T06:20:16;15.70;94.50
17452;DHT22;8843;48.838;9.324;2022-10-16T06:22:43;15.70;94.30
17452;DHT22;8843;48.838;9.324;2022-10-16T06:25:09;15.70;94.40
17452;DHT22;8843;48.838;9.324;2022-10-16T06:27:39;15.70;94.40
17452;DHT22;8843;48.838;9.324;2022-10-16T06:30:07;15.70;94.80
17452;DHT22;8843;48.838;9.324;2022-10-16T06:32:35;15.70;93.80
17452;DHT22;8843;48.838;9.324;2022-10-16T06:35:02;15.70;94.20
17452;DHT22;8843;48.838;9.324;2022-10-16T06:37:29;15.70;93.80
17452;DHT22;8843;48.838;9.324;2022-10-16T06:39:56;15.70;93.30
17452;DHT22;8843;48.838;9.324;2022-10-16T06:42:23;15.80;93.20
17452;DHT22;8843;48.838;9.324;2022-10-16T06:44:50;15.80;93.30
17452;DHT22;8843;48.838;9.324;2022-10-16T06:47:17;15.80;93.20
17452;DHT22;8843;48.838;9.324;2022-10-16T06:49:45;15.80;93.00
17452;DHT22;8843;48.838;9.324;2022-10-16T06:52:12;15.80;93.30
17452;DHT22;8843;48.838;9.324;2022-10-16T06:54:38;15.80;93.70
17452;DHT22;8843;48.838;9.324;2022-10-16T06:57:05;15.70;93.60
17452;DHT22;8843;48.838;9.324;2022-10-16T06:59:32;15.70;93.50
17452;DHT22;8843;48.838;9.324;2022-10-16T07:01:59;15.70;93.60
17452;DHT22;8843;48.838;9.324;2022-10-16T07:04:26;15.80;93.80
17452;DHT22;8843;48.838;9.324;2022-10-16T07:06:54;15.70;94.50
17452;DHT22;8843;48.838;9.324;2022-10-16T07:09:21;15.70;94.00
17452;DHT22;8843;48.838;9.324;2022-10-16T07:11:48;15.80;94.00
17452;DHT22;8843;48.838;9.324;2022-10-16T07:14:17;15.70;94.30
17452;DHT22;8843;48.838;9.324;2022-10-16T07:16:44;15.70;93.60
17452;DHT22;8843;48.838;9.324;2022-10-16T07:19:11;15.70;93.60
17452;DHT22;8843;48.838;9.324;2022-10-16T07:21:40;15.70;94.30
17452;DHT22;8843;48.838;9.324;2022-10-16T07:24:13;15.70;93.60
17452;DHT22;8843;48.838;9.324;2022-10-16T07:26:41;15.70;93.80
17452;DHT22;8843;48.838;9.324;2022-10-16T07:29:13;15.70;94.70
17452;DHT22;8843;48.838;9.324;2022-10-16T07:31:41;15.70;94.50
17452;DHT22;8843;48.838;9.324;2022-10-16T07:34:09;15.70;94.30
17452;DHT22;8843;48.838;9.324;2022-10-16T07:36:36;15.70;94.60
17452;DHT22;8843;48.838;9.324;2022-10-16T07:39:03;15.70;94.70
17452;DHT22;8843;48.838;9.324;2022-10-16T07:41:32;15.70;93.30
17452;DHT22;8843;48.838;9.324;2022-10-16T07:44:02;15.70;94.80
17452;DHT22;8843;48.838;9.324;2022-10-16T07:46:30;15.70;94.70
17452;DHT22;8843;48.838;9.324;2022-10-16T07:48:59;15.70;94.80
17452;DHT22;8843;48.838;9.324;2022-10-16T07:51:26;15.70;94.70
17452;DHT22;8843;48.838;9.324;2022-10-16T07:53:53;15.70;95.10
17452;DHT22;8843;48.838;9.324;2022-10-16T07:56:21;15.70;94.80
17452;DHT22;8843;48.838;9.324;2022-10-16T07:58:50;15.70;94.80
17452;DHT22;8843;48.838;9.324;2022-10-16T08:01:18;15.70;94.80
17452;DHT22;8843;48.838;9.324;2022-10-16T08:03:46;15.70;94.80
17452;DHT22;8843;48.838;9.324;2022-10-16T08:06:14;15.70;95.20
17452;DHT22;8843;48.838;9.324;2022-10-16T08:08:41;15.70;95.90
17452;DHT22;8843;48.838;9.324;2022-10-16T08:11:08;15.70;95.00
17452;DHT22;8843;48.838;9.324;2022-10-16T08:13:35;15.70;95.70
17452;DHT22;8843;48.838;9.324;2022-10-16T08:16:04;15.70;95.20
17452;DHT22;8843;48.838;9.324;2022-10-16T08:18:33;15.80;95.80
17452;DHT22;8843;48.838;9.324;2022-10-16T08:21:00;15.80;95.30
17452;DHT22;8843;48.838;9.324;2022-10-16T08:23:27;15.80;95.40
17452;DHT22;8843;48.838;9.324;2022-10-16T08:25:55;15.80;95.10
17452;DHT22;8843;48.838;9.324;2022-10-16T08:28:23;15.80;95.90
17452;DHT22;8843;48.838;9.324;2022-10-16T08:30:50;15.80;96.40
17452;DHT22;8843;48.838;9.324;2022-10-16T08:33:18;15.80;96.20
17452;DHT22;8843;48.838;9.324;2022-10-16T08:35:50;15.80;95.60
17452;DHT22;8843;48.838;9.324;2022-10-16T08:38:18;15.80;96.80
17452;DHT22;8843;48.838;9.324;2022-10-16T08:40:44;15.90;97.30
17452;DHT22;8843;48.838;9.324;2022-10-16T08:43:25;15.90;97.90
17452;DHT22;8843;48.838;9.324;2022-10-16T08:46:08;15.90;98.20
17452;DHT22;8843;48.838;9.324;2022-10-16T08:48:46;15.90;98.70
17452;DHT22;8843;48.838;9.324;2022-10-16T08:51:19;16.00;98.40
17452;DHT22;8843;48.838;9.324;2022-10-16T08:53:51;16.00;98.90
17452;DHT22;8843;48.838;9.324;2022-10-16T08:56:18;16.00;98.90
17452;DHT22;8843;48.838;9.324;2022-10-16T08:58:46;16.00;99.00
17452;DHT22;8843;48.838;9.324;2022-10-16T09:01:14;16.00;99.00
17452;DHT22;8843;48.838;9.324;2022-10-16T09:04:07;16.10;99.40
17452;DHT22;8843;48.838;9.324;2022-10-16T09:06:46;16.10;99.30
17452;DHT22;8843;48.838;9.324;2022-10-16T09:09:34;16.10;99.50
17452;DHT22;8843;48.838;9.324;2022-10-16T09:12:09;16.10;99.80
17452;DHT22;8843;48.838;9.324;2022-10-16T09:14:47;16.10;99.90
17452;DHT22;8843;48.838;9.324;2022-10-16T09:17:28;16.10;99.60
17452;DHT22;8843;48.838;9.324;2022-10-16T09:20:06;16.20;99.90
17452;DHT22;8843;48.838;9.324;2022-10-16T09:22:36;16.20;99.10
17452;DHT22;8843;48.838;9.324;2022-10-16T09:25:11;16.20;99.90
17452;DHT22;8843;48.838;9.324;2022-10-16T09:27:38;16.20;99.90
17452;DHT22;8843;48.838;9.324;2022-10-16T09:30:12;16.30;99.90
17452;DHT22;8843;48.838;9.324;2022-10-16T09:32:39;16.30;99.90
17452;DHT22;8843;48.838;9.324;2022-10-16T09:35:13;16.40;99.90
17452;DHT22;8843;48.838;9.324;2022-10-16T09:37:42;16.40;99.90
17452;DHT22;8843;48.838;9.324;2022-10-16T09:40:13;16.40;99.90
17452;DHT22;8843;48.838;9.324;2022-10-16T09:42:40;16.40;99.90
17452;DHT22;8843;48.838;9.324;2022-10-16T09:45:21;16.50;99.90
17452;DHT22;8843;48.838;9.324;2022-10-16T09:47:48;16.50;99.90
17452;DHT22;8843;48.838;9.324;2022-10-16T09:50:27;16.60;99.90
17452;DHT22;8843;48.838;9.324;2022-10-16T09:53:04;16.60;99.90
17452;DHT22;8843;48.838;9.324;2022-10-16T09:55:31;16.60;99.90
17452;DHT22;8843;48.838;9.324;2022-10-16T09:57:58;16.60;99.90
17452;DHT22;8843;48.838;9.324;2022-10-16T10:00:25;16.70;99.90
17452;DHT22;8843;48.838;9.324;2022-10-16T10:02:53;16.70;99.90
17452;DHT22;8843;48.838;9.324;2022-10-16T10:05:22;16.70;99.90
17452;DHT22;8843;48.838;9.324;2022-10-16T10:07:56;16.90;99.90
17452;DHT22;8843;48.838;9.324;2022-10-16T10:10:26;17.10;99.90
17452;DHT22;8843;48.838;9.324;2022-10-16T10:12:53;17.10;99.90
17452;DHT22;8843;48.838;9.324;2022-10-16T10:15:21;17.30;99.90
17452;DHT22;8843;48.838;9.324;2022-10-16T10:17:50;17.40;99.90
17452;DHT22;8843;48.838;9.324;2022-10-16T10:20:26;17.40;99.90
17452;DHT22;8843;48.838;9.324;2022-10-16T10:22:55;17.50;99.90
17452;DHT22;8843;48.838;9.324;2022-10-16T10:25:32;17.80;99.90
17452;DHT22;8843;48.838;9.324;2022-10-16T10:31:04;18.20;99.90
17452;DHT22;8843;48.838;9.324;2022-10-16T10:33:41;18.10;99.90
17452;DHT22;8843;48.838;9.324;2022-10-16T10:36:20;18.40;99.90
17452;DHT22;8843;48.838;9.324;2022-10-16T10:38:54;18.50;99.90
17452;DHT22;8843;48.838;9.324;2022-10-16T10:41:43;18.70;99.90
17452;DHT22;8843;48.838;9.324;2022-10-16T10:44:18;18.70;99.90
17452;DHT22;8843;48.838;9.324;2022-10-16T10:46:55;18.80;99.90
17452;DHT22;8843;48.838;9.324;2022-10-16T10:49:36;19.00;99.90
17452;DHT22;8843;48.838;9.324;2022-10-16T10:52:17;19.10;99.90
17452;DHT22;8843;48.838;9.324;2022-10-16T10:54:55;19.30;99.70
17452;DHT22;8843;48.838;9.324;2022-10-16T10:57:29;19.30;99.30
17452;DHT22;8843;48.838;9.324;2022-10-16T11:00:05;19.60;99.90
17452;DHT22;8843;48.838;9.324;2022-10-16T11:02:38;19.80;99.50
17452;DHT22;8843;48.838;9.324;2022-10-16T11:05:31;20.10;99.00
17452;DHT22;8843;48.838;9.324;2022-10-16T11:08:02;20.40;98.70
17452;DHT22;8843;48.838;9.324;2022-10-16T11:10:38;20.70;97.30
17452;DHT22;8843;48.838;9.324;2022-10-16T11:13:18;20.90;96.40
17452;DHT22;8843;48.838;9.324;2022-10-16T11:15:48;21.00;96.80
17452;DHT22;8843;48.838;9.324;2022-10-16T11:18:21;21.30;97.00
17452;DHT22;8843;48.838;9.324;2022-10-16T11:20:52;21.50;95.10
17452;DHT22;8843;48.838;9.324;2022-10-16T11:23:25;21.60;95.00
17452;DHT22;8843;48.838;9.324;2022-10-16T11:25:57;21.50;93.90
17452;DHT22;8843;48.838;9.324;2022-10-16T11:28:31;21.60;94.50
17452;DHT22;8843;48.838;9.324;2022-10-16T11:31:03;21.80;94.60
17452;DHT22;8843;48.838;9.324;2022-10-16T11:33:37;22.10;94.30
17452;DHT22;8843;48.838;9.324;2022-10-16T11:36:11;22.10;93.10
17452;DHT22;8843;48.838;9.324;2022-10-16T11:38:43;22.40;93.60
17452;DHT22;8843;48.838;9.324;2022-10-16T11:41:19;22.40;92.00
17452;DHT22;8843;48.838;9.324;2022-10-16T11:43:52;22.50;90.90
17452;DHT22;8843;48.838;9.324;2022-10-16T11:46:24;22.70;91.90
17452;DHT22;8843;48.838;9.324;2022-10-16T11:48:56;22.80;91.80
17452;DHT22;8843;48.838;9.324;2022-10-16T11:51:29;22.80;91.50
17452;DHT22;8843;48.838;9.324;2022-10-16T11:54:04;22.90;91.40
17452;DHT22;8843;48.838;9.324;2022-10-16T11:56:37;23.00;91.40
17452;DHT22;8843;48.838;9.324;2022-10-16T11:59:08;23.30;90.90
17452;DHT22;8843;48.838;9.324;2022-10-16T12:01:42;23.20;90.30
17452;DHT22;8843;48.838;9.324;2022-10-16T12:04:17;23.30;90.10
17452;DHT22;8843;48.838;9.324;2022-10-16T12:06:49;23.30;90.00
17452;DHT22;8843;48.838;9.324;2022-10-16T12:09:21;23.40;88.40
17452;DHT22;8843;48.838;9.324;2022-10-16T12:11:50;23.40;88.30
17452;DHT22;8843;48.838;9.324;2022-10-16T12:14:20;23.50;86.90
17452;DHT22;8843;48.838;9.324;2022-10-16T12:16:53;23.60;87.10
17452;DHT22;8843;48.838;9.324;2022-10-16T12:19:21;23.70;86.90
17452;DHT22;8843;48.838;9.324;2022-10-16T12:21:50;23.80;87.10
17452;DHT22;8843;48.838;9.324;2022-10-16T12:24:33;23.70;85.90
17452;DHT22;8843;48.838;9.324;2022-10-16T12:27:02;23.70;85.00
17452;DHT22;8843;48.838;9.324;2022-10-16T12:29:33;23.70;84.50
17452;DHT22;8843;48.838;9.324;2022-10-16T12:32:01;23.70;85.00
17452;DHT22;8843;48.838;9.324;2022-10-16T12:34:31;23.40;83.90
17452;DHT22;8843;48.838;9.324;2022-10-16T12:37:09;23.30;83.80
17452;DHT22;8843;48.838;9.324;2022-10-16T12:39:37;23.30;83.80
17452;DHT22;8843;48.838;9.324;2022-10-16T12:42:22;23.20;82.40
17452;DHT22;8843;48.838;9.324;2022-10-16T12:44:50;23.10;82.00
17452;DHT22;8843;48.838;9.324;2022-10-16T12:47:22;23.10;83.30
17452;DHT22;8843;48.838;9.324;2022-10-16T12:49:51;23.10;83.80
17452;DHT22;8843;48.838;9.324;2022-10-16T12:52:27;23.00;83.70
17452;DHT22;8843;48.838;9.324;2022-10-16T12:54:56;23.00;85.00
17452;DHT22;8843;48.838;9.324;2022-10-16T12:57:46;23.10;84.20
17452;DHT22;8843;48.838;9.324;2022-10-16T13:00:23;23.20;84.20
17452;DHT22;8843;48.838;9.324;2022-10-16T13:05:54;23.50;83.30
17452;DHT22;8843;48.838;9.324;2022-10-16T13:08:34;23.60;82.70
17452;DHT22;8843;48.838;9.324;2022-10-16T13:11:09;23.60;82.70
17452;DHT22;8843;48.838;9.324;2022-10-16T13:13:54;23.60;82.40
17452;DHT22;8843;48.838;9.324;2022-10-16T13:16:33;23.70;81.50
17452;DHT22;8843;48.838;9.324;2022-10-16T13:19:11;23.70;83.20
17452;DHT22;8843;48.838;9.324;2022-10-16T13:21:49;23.70;81.50
17452;DHT22;8843;48.838;9.324;2022-10-16T13:24:34;23.70;80.80
17452;DHT22;8843;48.838;9.324;2022-10-16T13:27:09;23.70;80.70
17452;DHT22;8843;48.838;9.324;2022-10-16T13:29:41;23.70;80.30
17452;DHT22;8843;48.838;9.324;2022-10-16T13:32:10;23.60;80.10
17452;DHT22;8843;48.838;9.324;2022-10-16T13:34:44;23.50;80.00
17452;DHT22;8843;48.838;9.324;2022-10-16T13:37:17;23.50;80.50
17452;DHT22;8843;48.838;9.324;2022-10-16T13:39:45;23.30;81.50
17452;DHT22;8843;48.838;9.324;2022-10-16T13:42:22;23.30;81.20
17452;DHT22;8843;48.838;9.324;2022-10-16T13:44:52;23.20;80.60
17452;DHT22;8843;48.838;9.324;2022-10-16T13:47:21;23.10;82.00
17452;DHT22;8843;48.838;9.324;2022-10-16T13:49:59;22.90;83.20
17452;DHT22;8843;48.838;9.324;2022-10-16T13:52:27;22.80;82.80
17452;DHT22;8843;48.838;9.324;2022-10-16T13:54:54;22.80;82.60
17452;DHT22;8843;48.838;9.324;2022-10-16T13:57:22;22.70;83.00
17452;DHT22;8843;48.838;9.324;2022-10-16T13:59:51;22.60;83.40
17452;DHT22;8843;48.838;9.324;2022-10-16T14:02:22;22.60;82.90
17452;DHT22;8843;48.838;9.324;2022-10-16T14:04:52;22.60;82.70
17452;DHT22;8843;48.838;9.324;2022-10-16T14:07:23;22.50;82.40
17452;DHT22;8843;48.838;9.324;2022-10-16T14:09:52;22.30;82.60
17452;DHT22;8843;48.838;9.324;2022-10-16T14:12:20;22.40;82.50
17452;DHT22;8843;48.838;9.324;2022-10-16T14:14:49;22.40;82.80
17452;DHT22;8843;48.838;9.324;2022-10-16T14:17:21;22.30;82.40
17452;DHT22;8843;48.838;9.324;2022-10-16T14:19:50;22.20;82.70
17452;DHT22;8843;48.838;9.324;2022-10-16T14:22:30;22.10;83.60
17452;DHT22;8843;48.838;9.324;2022-10-16T14:24:57;22.10;84.10
17452;DHT22;8843;48.838;9.324;2022-10-16T14:27:29;22.00;84.90
17452;DHT22;8843;48.838;9.324;2022-10-16T14:30:12;22.00;85.10
17452;DHT22;8843;48.838;9.324;2022-10-16T14:32:52;21.90;85.20
17452;DHT22;8843;48.838;9.324;2022-10-16T14:35:24;21.80;85.90
17452;DHT22;8843;48.838;9.324;2022-10-16T14:37:52;21.80;86.10
17452;DHT22;8843;48.838;9.324;2022-10-16T14:40:21;21.70;86.00
17452;DHT22;8843;48.838;9.324;2022-10-16T14:42:49;21.70;86.00
17452;DHT22;8843;48.838;9.324;2022-10-16T14:45:19;21.60;86.40
17452;DHT22;8843;48.838;9.324;2022-10-16T14:47:50;21.60;87.30
17452;DHT22;8843;48.838;9.324;2022-10-16T14:50:18;21.50;86.80
17452;DHT22;8843;48.838;9.324;2022-10-16T14:52:45;21.50;86.50
17452;DHT22;8843;48.838;9.324;2022-10-16T14:55:12;21.40;86.90
17452;DHT22;8843;48.838;9.324;2022-10-16T14:57:39;21.40;87.20
17452;DHT22;8843;48.838;9.324;2022-10-16T15:00:15;21.30;87.80
17452;DHT22;8843;48.838;9.324;2022-10-16T15:02:42;21.30;87.60
17452;DHT22;8843;48.838;9.324;2022-10-16T15:05:17;21.30;87.80
17452;DHT22;8843;48.838;9.324;2022-10-16T15:07:44;21.20;87.80
17452;DHT22;8843;48.838;9.324;2022-10-16T15:10:11;21.10;87.90
17452;DHT22;8843;48.838;9.324;2022-10-16T15:12:38;21.10;88.20
17452;DHT22;8843;48.838;9.324;2022-10-16T15:15:34;21.10;88.60
17452;DHT22;8843;48.838;9.324;2022-10-16T15:18:01;21.00;88.50
17452;DHT22;8843;48.838;9.324;2022-10-16T15:20:32;21.00;88.80
17452;DHT22;8843;48.838;9.324;2022-10-16T15:23:00;21.00;89.20
17452;DHT22;8843;48.838;9.324;2022-10-16T15:25:32;20.90;89.90
17452;DHT22;8843;48.838;9.324;2022-10-16T15:28:00;20.90;89.40
17452;DHT22;8843;48.838;9.324;2022-10-16T15:30:27;20.80;90.00
17452;DHT22;8843;48.838;9.324;2022-10-16T15:32:54;20.80;89.30
17452;DHT22;8843;48.838;9.324;2022-10-16T15:35:21;20.70;89.30
17452;DHT22;8843;48.838;9.324;2022-10-16T15:37:50;20.70;89.60
17452;DHT22;8843;48.838;9.324;2022-10-16T15:40:18;20.70;89.90
17452;DHT22;8843;48.838;9.324;2022-10-16T15:42:45;20.70;90.00
17452;DHT22;8843;48.838;9.324;2022-10-16T15:45:13;20.60;89.80
17452;DHT22;8843;48.838;9.324;2022-10-16T15:47:41;20.60;90.00
17452;DHT22;8843;48.838;9.324;2022-10-16T15:50:10;20.50;90.20
17452;DHT22;8843;48.838;9.324;2022-10-16T15:52:37;20.50;90.00
17452;DHT22;8843;48.838;9.324;2022-10-16T15:55:07;20.40;89.90
17452;DHT22;8843;48.838;9.324;2022-10-16T15:57:35;20.40;89.70
17452;DHT22;8843;48.838;9.324;2022-10-16T16:00:05;20.40;90.00
17452;DHT22;8843;48.838;9.324;2022-10-16T16:02:33;20.30;90.00
17452;DHT22;8843;48.838;9.324;2022-10-16T16:05:00;20.30;90.30
17452;DHT22;8843;48.838;9.324;2022-10-16T16:07:27;20.20;90.10
17452;DHT22;8843;48.838;9.324;2022-10-16T16:09:54;20.20;90.40